Time;durP1;ratioP1;P1;durP2;ratioP2;P2;SDS_P1;SDS_P2;PMS_P1;PMS_P2;Temp;Humidity;BMP_temperature;BMP_pressure;BME280_temperature;BME280_humidity;BME280_pressure;Samples;Min_cycle;Max_cycle;Signal;HPM_P1;HPM_P2
2022/08/20 00:01:48;;;;;;;25.85;17.83;;;;;;;-148.88;85.21;74566.81;4994688;28;20069;-86
2022/08/20 00:04:13;;;;;;;25.40;18.10;;;;;;;-148.88;85.79;74566.81;4994267;28;20030;-86
2022/08/20 00:06:39;;;;;;;21.27;16.15;;;;;;;-148.88;85.64;74554.63;4994818;28;20061;-85
2022/08/20 00:09:05;;;;;;;22.30;15.77;;;;;;;-148.88;85.68;74560.72;4995109;28;20113;-87
2022/08/20 00:11:34;;;;;;;22.98;16.38;;;;;;;-148.88;86.58;74579.00;4994389;28;20388;-86
2022/08/20 00:14:01;;;;;;;22.65;16.73;;;;;;;-148.88;86.89;74589.16;4994420;28;20425;-86
2022/08/20 00:16:34;;;;;;;21.10;15.82;;;;;;;-148.88;87.01;74583.06;4994322;28;20477;-86
2022/08/20 00:19:00;;;;;;;22.55;15.60;;;;;;;-148.88;86.84;74581.03;4995341;28;20026;-86
2022/08/20 00:21:26;;;;;;;27.25;16.15;;;;;;;-148.88;86.84;74583.06;4993844;28;20398;-86
2022/08/20 00:23:55;;;;;;;22.05;17.02;;;;;;;-148.88;86.62;74581.03;4993925;28;20540;-86
2022/08/20 00:26:22;;;;;;;22.23;15.77;;;;;;;-148.88;86.15;74566.81;4994048;28;20070;-86
2022/08/20 00:28:48;;;;;;;19.65;15.25;;;;;;;-148.88;85.59;74552.59;4993906;28;20141;-85
2022/08/20 00:31:17;;;;;;;26.63;15.98;;;;;;;-148.88;86.14;74566.81;4994205;28;20030;-86
2022/08/20 00:33:43;;;;;;;23.02;16.48;;;;;;;-148.88;86.75;74579.00;4994006;28;20029;-85
2022/08/20 00:36:11;;;;;;;26.40;16.80;;;;;;;-148.88;86.54;74574.94;4993540;28;20105;-86
2022/08/20 00:38:40;;;;;;;22.90;16.70;;;;;;;-148.88;87.23;74583.06;4993142;28;20220;-85
2022/08/20 00:41:11;;;;;;;21.25;16.35;;;;;;;-148.88;87.23;74581.03;4993735;28;20019;-86
2022/08/20 00:43:41;;;;;;;23.23;16.65;;;;;;;-148.88;87.56;74583.06;4994454;28;20030;-86
2022/08/20 00:46:10;;;;;;;22.02;15.45;;;;;;;-148.88;87.38;74570.88;4994008;28;20019;-86
2022/08/20 00:48:38;;;;;;;21.10;16.20;;;;;;;-148.88;87.01;74570.88;4994577;28;20034;-86
2022/08/20 00:51:21;;;;;;;25.83;18.15;;;;;;;-148.88;86.56;74570.88;4994315;28;20046;-86
2022/08/20 00:53:49;;;;;;;22.23;15.93;;;;;;;-148.88;87.34;74583.06;4993647;28;20041;-85
2022/08/20 00:56:14;;;;;;;23.73;16.95;;;;;;;-148.88;87.66;74595.25;4993866;28;20022;-85
2022/08/20 00:58:43;;;;;;;21.67;16.40;;;;;;;-148.88;87.46;74595.25;4994308;28;20156;-86
2022/08/20 01:01:10;;;;;;;21.25;16.92;;;;;;;-148.88;87.77;74595.25;4993472;28;20022;-86
2022/08/20 01:03:36;;;;;;;24.63;16.67;;;;;;;-148.88;87.50;74593.22;4993156;28;20034;-85
2022/08/20 01:06:02;;;;;;;24.08;16.60;;;;;;;-148.88;88.33;74603.34;4993099;28;20109;-86
2022/08/20 01:08:38;;;;;;;24.40;16.42;;;;;;;-148.88;88.89;74617.56;4994012;28;20113;-86
2022/08/20 01:11:09;;;;;;;23.92;17.48;;;;;;;-148.88;88.55;74611.47;4993441;28;20022;-85
2022/08/20 01:13:46;;;;;;;24.50;17.50;;;;;;;-148.88;89.31;74623.66;4993860;28;20030;-85
2022/08/20 01:16:22;;;;;;;24.35;17.90;;;;;;;-148.88;90.02;74639.91;4993264;28;20022;-85
2022/08/20 01:18:50;;;;;;;24.65;18.52;;;;;;;-148.88;90.90;74648.03;4992941;28;20028;-86
2022/08/20 01:21:22;;;;;;;26.60;18.83;;;;;;;-148.88;91.01;74652.09;4992668;28;20033;-85
2022/08/20 01:24:05;;;;;;;29.73;20.02;;;;;;;-148.88;91.58;74668.34;4992726;28;20036;-85
2022/08/20 01:26:37;;;;;;;25.35;18.77;;;;;;;-148.88;91.58;74662.25;4992745;28;20108;-85
2022/08/20 01:29:13;;;;;;;25.73;18.80;;;;;;;-148.88;91.83;74668.34;4992870;28;20076;-85
2022/08/20 01:31:40;;;;;;;25.63;19.33;;;;;;;-148.88;92.33;74664.28;4993619;28;20022;-85
2022/08/20 01:34:10;;;;;;;28.52;20.08;;;;;;;-148.88;91.67;74656.16;4993025;28;20022;-85
2022/08/20 01:36:45;;;;;;;27.35;19.60;;;;;;;-148.88;91.61;74656.16;4993536;28;20385;-86
2022/08/20 01:39:15;;;;;;;27.25;19.30;;;;;;;-148.88;92.09;74660.22;4994139;28;20121;-86
2022/08/20 01:41:51;;;;;;;27.70;20.38;;;;;;;-148.88;91.61;74660.22;4992797;28;20053;-84
2022/08/20 01:44:18;;;;;;;27.40;20.13;;;;;;;-148.88;91.86;74660.22;4992932;28;20026;-85
2022/08/20 01:46:46;;;;;;;30.58;19.38;;;;;;;-148.88;91.71;74664.28;4992543;28;20029;-85
2022/08/20 01:49:16;;;;;;;27.92;19.67;;;;;;;-148.88;92.05;74664.28;4992592;28;20023;-85
2022/08/20 01:51:42;;;;;;;28.70;19.88;;;;;;;-148.88;92.14;74672.41;4992009;28;20031;-85
2022/08/20 01:54:11;;;;;;;28.38;19.08;;;;;;;-148.88;92.65;74670.38;4992429;28;20121;-86
2022/08/20 01:56:55;;;;;;;29.63;19.50;;;;;;;-148.88;92.41;74668.34;4992773;28;20033;-86
2022/08/20 01:59:23;;;;;;;27.20;19.98;;;;;;;-148.88;91.46;74660.22;4992643;28;20041;-84
2022/08/20 02:01:50;;;;;;;30.58;20.25;;;;;;;-148.88;91.93;74660.22;4992809;28;20125;-86
2022/08/20 02:04:17;;;;;;;25.88;19.15;;;;;;;-148.88;92.28;74660.22;4992683;28;20117;-85
2022/08/20 02:06:55;;;;;;;29.27;19.65;;;;;;;-148.88;91.76;74656.16;4993255;28;20080;-86
2022/08/20 02:09:21;;;;;;;28.58;20.15;;;;;;;-148.88;91.41;74656.16;4993923;28;20022;-85
2022/08/20 02:11:52;;;;;;;29.00;19.70;;;;;;;-148.88;91.88;74658.19;4993033;28;20101;-85
2022/08/20 02:14:17;;;;;;;24.63;18.23;;;;;;;-148.88;91.52;74652.09;4992624;28;20094;-86
2022/08/20 02:16:47;;;;;;;28.45;20.00;;;;;;;-148.88;91.64;74656.16;4993536;28;20542;-85
2022/08/20 02:19:20;;;;;;;29.73;20.90;;;;;;;-148.88;91.13;74641.94;4992944;28;20033;-86
2022/08/20 02:21:54;;;;;;;27.23;19.40;;;;;;;-148.88;91.19;74641.94;4992352;28;20023;-85
2022/08/20 02:24:20;;;;;;;27.88;19.30;;;;;;;-148.88;90.98;74635.84;4992634;28;20033;-86
2022/08/20 02:26:45;;;;;;;29.60;19.88;;;;;;;-148.88;90.80;74643.97;4992612;28;20034;-85
2022/08/20 02:29:19;;;;;;;28.30;19.65;;;;;;;-148.88;91.24;74639.91;4992475;28;20026;-85
2022/08/20 02:31:45;;;;;;;28.33;20.17;;;;;;;-148.88;90.67;74641.94;4993074;28;20045;-85
2022/08/20 02:34:15;;;;;;;25.75;18.92;;;;;;;-148.88;91.29;74643.97;4992156;28;20026;-85
2022/08/20 02:36:48;;;;;;;27.33;19.30;;;;;;;-148.88;91.21;74660.22;4992827;28;20022;-86
2022/08/20 02:39:14;;;;;;;30.95;21.35;;;;;;;-148.88;91.53;74664.28;4992564;28;20045;-86
2022/08/20 02:41:40;;;;;;;28.20;19.80;;;;;;;-148.88;91.00;74660.22;4992906;28;20022;-85
2022/08/20 02:44:06;;;;;;;26.55;20.15;;;;;;;-148.88;90.57;74660.22;4992324;28;20033;-86
2022/08/20 02:46:33;;;;;;;31.27;20.25;;;;;;;-148.88;91.47;74666.31;4991991;28;20030;-86
2022/08/20 02:48:58;;;;;;;28.02;18.60;;;;;;;-148.88;91.43;74668.34;4992395;28;20022;-85
2022/08/20 02:51:30;;;;;;;28.73;19.67;;;;;;;-148.88;91.23;74664.28;4992022;28;20041;-85
2022/08/20 02:53:56;;;;;;;27.48;21.33;;;;;;;-148.88;92.78;74694.75;4992541;28;20033;-85
2022/08/20 02:56:21;;;;;;;28.42;19.42;;;;;;;-148.88;93.43;74692.72;4992708;28;20018;-87
2022/08/20 02:58:46;;;;;;;30.20;21.35;;;;;;;-148.88;93.99;74702.84;4992137;28;20121;-85
2022/08/20 03:01:15;;;;;;;29.80;20.73;;;;;;;-148.88;93.96;74710.97;4991894;28;20030;-85
2022/08/20 03:03:44;;;;;;;30.15;21.00;;;;;;;-148.88;94.12;74717.06;4995837;28;20030;-85
2022/08/20 03:06:12;;;;;;;32.88;21.58;;;;;;;-148.88;94.88;74723.16;4995286;28;20023;-85
2022/08/20 03:08:37;;;;;;;28.90;20.88;;;;;;;-148.88;94.70;74727.22;4995237;28;20033;-85
2022/08/20 03:11:03;;;;;;;31.70;21.35;;;;;;;-148.88;94.73;74715.03;4995568;28;20018;-86
2022/08/20 03:13:29;;;;;;;31.63;21.48;;;;;;;-148.88;94.69;74717.06;4995406;28;20026;-84
2022/08/20 03:15:58;;;;;;;31.02;21.20;;;;;;;-148.88;94.65;74715.03;4995091;28;20029;-86
2022/08/20 03:18:30;;;;;;;32.58;21.48;;;;;;;-148.88;95.39;74719.09;4995173;28;20032;-85
2022/08/20 03:20:55;;;;;;;29.88;21.00;;;;;;;-148.88;95.64;74713.00;4995223;28;20489;-86
2022/08/20 03:23:24;;;;;;;31.58;21.63;;;;;;;-148.88;96.30;74733.31;4995635;28;20041;-85
2022/08/20 03:25:49;;;;;;;31.13;21.85;;;;;;;-148.88;97.73;74741.44;4995057;28;20459;-85
2022/08/20 03:28:16;;;;;;;30.80;21.90;;;;;;;-148.88;97.78;74729.25;4995054;28;20053;-85
2022/08/20 03:30:42;;;;;;;31.73;23.00;;;;;;;-148.88;98.04;74741.44;4994942;28;20572;-86
2022/08/20 03:33:08;;;;;;;37.03;23.67;;;;;;;-148.88;99.31;74749.56;4994983;28;20026;-85
2022/08/20 03:35:34;;;;;;;36.90;23.83;;;;;;;-148.88;99.50;74751.59;4995087;28;20452;-87
2022/08/20 03:38:00;;;;;;;37.13;23.75;;;;;;;-148.88;99.57;74755.66;4995083;28;20023;-87
2022/08/20 03:40:32;;;;;;;36.65;24.67;;;;;;;-148.88;100.00;74763.78;4994847;28;20030;-86
2022/08/20 03:42:58;;;;;;;39.40;24.75;;;;;;;-148.88;100.00;74773.94;4996254;28;20035;-87
2022/08/20 03:45:26;;;;;;;35.80;25.27;;;;;;;-148.88;100.00;74794.25;4995878;28;20374;-88
2022/08/20 03:47:52;;;;;;;43.58;28.02;;;;;;;-148.88;100.00;74810.50;4995861;28;20105;-88
2022/08/20 03:50:22;;;;;;;43.83;27.30;;;;;;;-148.88;100.00;74824.69;4994656;28;20165;-87
2022/08/20 03:52:47;;;;;;;40.88;27.52;;;;;;;-148.88;100.00;74832.81;4994517;28;20026;-87
2022/08/20 03:55:13;;;;;;;43.05;29.70;;;;;;;-148.88;100.00;74840.94;4994528;28;20041;-87
2022/08/20 03:57:53;;;;;;;45.25;29.48;;;;;;;-148.88;100.00;74849.06;4994806;28;20030;-87
2022/08/20 04:00:22;;;;;;;44.88;30.00;;;;;;;-148.88;100.00;74851.09;4994449;28;20031;-86
2022/08/20 04:02:48;;;;;;;44.80;28.60;;;;;;;-148.88;100.00;74851.09;4994562;28;20073;-86
2022/08/20 04:05:13;;;;;;;46.92;29.75;;;;;;;-148.88;100.00;74847.03;4994431;28;20026;-86
2022/08/20 04:07:39;;;;;;;50.78;30.48;;;;;;;-148.88;100.00;74859.22;4995587;28;20030;-84
2022/08/20 04:10:08;;;;;;;48.08;30.85;;;;;;;-148.88;100.00;74859.22;4994166;28;20400;-86
2022/08/20 04:12:36;;;;;;;46.20;30.35;;;;;;;-148.88;100.00;74865.31;4993955;28;20033;-87
2022/08/20 04:15:01;;;;;;;53.88;31.90;;;;;;;-148.88;100.00;74867.34;4993342;28;20026;-87
2022/08/20 04:17:26;;;;;;;49.55;30.60;;;;;;;-148.88;100.00;74863.28;4994448;28;20029;-87
2022/08/20 04:19:52;;;;;;;52.38;31.88;;;;;;;-148.88;100.00;74871.41;4995183;28;20028;-86
2022/08/20 04:22:17;;;;;;;46.65;30.65;;;;;;;-148.88;100.00;74871.41;4994984;28;20062;-87
2022/08/20 04:24:43;;;;;;;47.83;31.02;;;;;;;-148.88;100.00;74873.44;4995032;28;20030;-86
2022/08/20 04:27:09;;;;;;;49.80;32.28;;;;;;;-148.88;100.00;74871.41;4995260;28;20026;-85
2022/08/20 04:29:35;;;;;;;51.20;31.73;;;;;;;-148.88;100.00;74883.59;4994045;28;20057;-86
2022/08/20 04:32:03;;;;;;;52.80;33.00;;;;;;;-148.88;100.00;74883.59;4994003;28;20117;-87
2022/08/20 04:34:28;;;;;;;53.40;32.25;;;;;;;-148.88;100.00;74891.72;4994903;28;20034;-86
2022/08/20 04:36:54;;;;;;;48.05;31.73;;;;;;;-148.88;100.00;74897.81;4993682;28;20343;-84
2022/08/20 04:39:20;;;;;;;54.95;34.80;;;;;;;-148.88;100.00;74887.66;4993715;28;20029;-86
2022/08/20 04:41:45;;;;;;;52.35;33.53;;;;;;;-148.88;100.00;74885.63;4993778;28;20027;-83
2022/08/20 04:44:11;;;;;;;51.78;33.17;;;;;;;-148.88;100.00;74893.75;4993630;28;20072;-85
2022/08/20 04:46:38;;;;;;;51.95;32.03;;;;;;;-148.88;100.00;74885.63;4993408;28;20117;-85
2022/08/20 04:49:05;;;;;;;49.15;32.25;;;;;;;-148.88;100.00;74887.66;4993588;28;20035;-86
2022/08/20 04:51:32;;;;;;;49.08;29.45;;;;;;;-148.88;100.00;74885.63;4993538;28;20027;-86
2022/08/20 04:53:58;;;;;;;45.88;30.15;;;;;;;-148.88;100.00;74887.66;4993781;28;20507;-86
2022/08/20 04:56:31;;;;;;;51.17;31.95;;;;;;;-148.88;100.00;74891.72;4993676;28;20026;-85
2022/08/20 04:58:59;;;;;;;49.72;30.73;;;;;;;-148.88;100.00;74903.91;4994245;28;20080;-85
2022/08/20 05:01:24;;;;;;;48.67;30.42;;;;;;;-148.88;100.00;74907.97;4993763;28;20024;-85
2022/08/20 05:03:53;;;;;;;50.40;31.90;;;;;;;-148.88;100.00;74910.00;4993728;28;20153;-85
2022/08/20 05:06:20;;;;;;;48.22;30.77;;;;;;;-148.88;100.00;74903.91;4994053;28;20032;-84
2022/08/20 05:08:46;;;;;;;51.00;33.38;;;;;;;-148.88;100.00;74901.88;4993052;28;20065;-87
2022/08/20 05:11:13;;;;;;;50.05;32.30;;;;;;;-148.88;100.00;74916.09;4993266;28;20065;-87
2022/08/20 05:13:38;;;;;;;51.53;33.30;;;;;;;-148.88;100.00;74907.97;4993010;28;20029;-88
2022/08/20 05:16:04;;;;;;;50.72;32.88;;;;;;;-148.88;100.00;74907.97;4993057;28;20022;-86
2022/08/20 05:18:32;;;;;;;53.80;32.55;;;;;;;-148.88;100.00;74920.16;4994295;28;20026;-87
2022/08/20 05:21:03;;;;;;;53.95;34.08;;;;;;;-148.88;100.00;74905.94;4993838;28;20113;-90
2022/08/20 05:23:28;;;;;;;52.25;34.42;;;;;;;-148.88;100.00;74912.03;4993468;28;20050;-91
2022/08/20 05:25:56;;;;;;;56.72;35.60;;;;;;;-148.88;100.00;74924.22;4992963;28;20064;-90
2022/08/20 05:28:25;;;;;;;64.57;38.08;;;;;;;-148.88;100.00;74912.03;4993288;28;20481;-89
2022/08/20 05:30:51;;;;;;;54.85;36.42;;;;;;;-148.88;100.00;74899.84;4993189;28;20115;-90
2022/08/20 05:33:19;;;;;;;56.97;36.47;;;;;;;-148.88;100.00;74907.97;4993401;28;20123;-91
2022/08/20 05:35:47;;;;;;;52.42;34.28;;;;;;;-148.88;100.00;74910.00;4993594;28;20053;-90
2022/08/20 05:38:15;;;;;;;50.28;34.15;;;;;;;-148.88;100.00;74916.09;4993856;28;20018;-90
2022/08/20 05:40:41;;;;;;;51.08;33.60;;;;;;;-148.88;100.00;74924.22;4993015;28;20105;-90
2022/08/20 05:43:07;;;;;;;48.65;32.90;;;;;;;-148.88;100.00;74916.09;4993127;28;20018;-90
2022/08/20 05:45:36;;;;;;;60.42;37.00;;;;;;;-148.88;100.00;74924.22;4993116;28;20440;-90
2022/08/20 05:48:11;;;;;;;55.17;34.97;;;;;;;-148.88;100.00;74930.31;4993265;28;20049;-89
2022/08/20 05:50:37;;;;;;;58.22;35.45;;;;;;;-148.88;100.00;74930.31;4992929;28;20022;-90
2022/08/20 05:53:04;;;;;;;56.05;34.75;;;;;;;-148.88;100.00;74920.16;4992799;28;20023;-90
2022/08/20 05:55:29;;;;;;;53.72;35.35;;;;;;;-148.88;100.00;74926.25;4993055;28;20481;-89
2022/08/20 05:57:59;;;;;;;57.50;36.80;;;;;;;-148.88;100.00;74928.28;4995598;28;20109;-88
2022/08/20 06:00:26;;;;;;;64.35;36.83;;;;;;;-148.88;100.00;74936.41;4996822;28;20023;-90
2022/08/20 06:05:35;;;;;;;59.80;37.33;;;;;;;-148.88;100.00;74932.34;4994874;28;20121;-89
2022/08/20 06:08:06;;;;;;;56.67;36.35;;;;;;;-148.88;100.00;74924.22;4992794;28;20485;-89
2022/08/20 06:10:31;;;;;;;48.83;33.45;;;;;;;-148.88;100.00;74940.47;4994778;28;20108;-90
2022/08/20 06:12:56;;;;;;;48.90;31.15;;;;;;;-148.88;100.00;74932.34;4993897;28;20034;-90
2022/08/20 06:15:22;;;;;;;50.72;32.33;;;;;;;-148.88;100.00;74942.47;4994003;28;20040;-90
2022/08/20 06:17:47;;;;;;;52.38;33.58;;;;;;;-148.88;100.00;74924.22;4992524;28;20048;-90
2022/08/20 06:20:15;;;;;;;51.58;33.08;;;;;;;-148.88;100.00;74920.16;4992941;28;20392;-89
2022/08/20 06:22:41;;;;;;;52.17;32.95;;;;;;;-148.88;100.00;74916.09;4993659;28;20037;-91
2022/08/20 06:25:07;;;;;;;47.00;31.40;;;;;;;-148.88;100.00;74936.41;4992422;28;20026;-91
2022/08/20 06:27:32;;;;;;;43.10;29.20;;;;;;;-148.88;100.00;74932.34;4994761;28;20125;-91
2022/08/20 06:29:58;;;;;;;44.30;29.15;;;;;;;-148.88;100.00;74930.31;4996770;28;20022;-91
2022/08/20 06:32:25;;;;;;;42.50;28.70;;;;;;;-148.88;100.00;74924.22;4995156;28;20027;-91
2022/08/20 06:34:51;;;;;;;39.70;27.50;;;;;;;-148.88;100.00;74940.47;4994986;28;20018;-89
2022/08/20 06:37:25;;;;;;;38.90;26.80;;;;;;;-148.88;100.00;74930.31;4994832;28;20046;-87
2022/08/20 06:39:51;;;;;;;37.10;25.60;;;;;;;-148.88;100.00;74932.34;4997431;28;20108;-87
2022/08/20 06:42:18;;;;;;;39.70;27.13;;;;;;;-148.88;100.00;74932.34;4996245;28;20149;-88
2022/08/20 06:44:47;;;;;;;39.80;25.75;;;;;;;-148.88;100.00;74936.41;4997970;28;20026;-89
2022/08/20 06:47:13;;;;;;;38.28;24.73;;;;;;;-148.88;100.00;74932.34;4996199;28;20072;-89
2022/08/20 06:49:39;;;;;;;34.58;22.98;;;;;;;-148.88;100.00;74930.31;4996123;28;20054;-89
2022/08/20 06:52:04;;;;;;;29.38;20.65;;;;;;;-148.88;100.00;74928.28;4996154;28;20456;-89
2022/08/20 06:54:30;;;;;;;31.23;20.77;;;;;;;-148.88;100.00;74928.28;4995997;28;20022;-90
2022/08/20 06:56:55;;;;;;;31.65;21.42;;;;;;;-148.88;100.00;74934.38;4997202;28;20053;-90
2022/08/20 06:59:21;;;;;;;30.92;22.08;;;;;;;-148.88;100.00;74924.22;4997867;28;20101;-90
2022/08/20 07:01:48;;;;;;;32.80;22.80;;;;;;;-148.88;100.00;74928.28;4995725;28;20393;-89
2022/08/20 07:04:14;;;;;;;31.90;22.80;;;;;;;-148.88;100.00;74932.34;4995975;28;20026;-90
2022/08/20 07:06:39;;;;;;;31.98;21.48;;;;;;;-148.88;100.00;74920.16;4995692;28;20461;-89
2022/08/20 07:09:05;;;;;;;33.05;23.00;;;;;;;-148.88;100.00;74910.00;4996757;28;20065;-89
2022/08/20 07:11:30;;;;;;;31.92;23.45;;;;;;;-148.88;100.00;74914.06;4995447;28;20037;-87
2022/08/20 07:13:57;;;;;;;35.70;24.25;;;;;;;-148.88;100.00;74887.66;4996650;28;20022;-89
2022/08/20 07:16:22;;;;;;;27.80;21.48;;;;;;;-148.88;100.00;74889.69;4996877;28;20563;-89
2022/08/20 07:18:48;;;;;;;26.13;19.60;;;;;;;-148.88;100.00;74910.00;4996859;28;20038;-88
2022/08/20 07:21:13;;;;;;;25.70;19.20;;;;;;;-148.88;100.00;74912.03;4996313;28;20022;-91
2022/08/20 07:23:40;;;;;;;24.38;18.80;;;;;;;-148.88;100.00;74918.13;4995332;28;20061;-90
2022/08/20 07:26:07;;;;;;;25.63;19.40;;;;;;;-148.88;100.00;74895.78;4995233;28;20030;-90
2022/08/20 07:28:32;;;;;;;25.95;19.38;;;;;;;-148.88;100.00;74887.66;4995472;28;20030;-89
2022/08/20 07:33:42;;;;;;;22.15;16.95;;;;;;;-148.88;100.00;74916.09;4996967;28;20507;-88
2022/08/20 07:36:08;;;;;;;20.83;16.50;;;;;;;-148.88;100.00;74891.72;4995241;28;20030;-89
2022/08/20 07:38:34;;;;;;;23.23;17.13;;;;;;;-148.88;100.00;74895.78;4995536;28;20408;-89
2022/08/20 07:41:06;;;;;;;21.98;17.13;;;;;;;-148.88;100.00;74893.75;4995426;28;20033;-90
2022/08/20 07:43:35;;;;;;;22.48;17.30;;;;;;;-148.88;100.00;74899.84;4995185;28;20033;-89
2022/08/20 07:46:07;;;;;;;26.30;18.67;;;;;;;-148.88;100.00;74889.69;4995271;28;20495;-90
2022/08/20 07:48:33;;;;;;;23.85;17.85;;;;;;;-148.88;100.00;74891.72;4997050;28;20500;-88
2022/08/20 07:51:03;;;;;;;19.38;14.60;;;;;;;-148.88;100.00;74895.78;5013117;28;20030;-88
2022/08/20 07:53:28;;;;;;;20.38;14.60;;;;;;;-148.88;100.00;74877.50;5014983;28;20030;-88
2022/08/20 07:55:54;;;;;;;20.35;15.13;;;;;;;-148.88;100.00;74855.16;5015098;28;20106;-89
2022/08/20 07:58:22;;;;;;;20.77;16.23;;;;;;;-148.88;100.00;74822.66;5016177;28;20083;-87
2022/08/20 08:00:48;;;;;;;17.92;14.35;;;;;;;-148.88;100.00;74826.72;5015235;28;20026;-87
2022/08/20 08:03:16;;;;;;;17.15;13.60;;;;;;;-148.88;100.00;74851.09;5016323;28;20037;-87
2022/08/20 08:05:45;;;;;;;16.45;12.85;;;;;;;-148.88;100.00;74842.97;5015856;28;20034;-88
2022/08/20 08:08:17;;;;;;;16.63;13.15;;;;;;;-148.88;100.00;74832.81;5016369;28;20027;-88
2022/08/20 08:10:46;;;;;;;15.82;13.48;;;;;;;-148.88;100.00;74840.94;5015498;28;20006;-88
2022/08/20 08:13:13;;;;;;;18.02;13.15;;;;;;;-148.88;100.00;74816.56;5012062;28;20060;-88
2022/08/20 08:15:45;;;;;;;15.77;12.43;;;;;;;-148.88;100.00;74830.78;5016107;28;20026;-91
2022/08/20 08:18:20;;;;;;;15.23;12.30;;;;;;;-148.88;100.00;74828.75;5017875;28;20027;-90
2022/08/20 08:20:46;;;;;;;19.10;13.38;;;;;;;-148.88;100.00;74802.38;5015553;28;20023;-89
2022/08/20 08:23:12;;;;;;;17.02;13.43;;;;;;;-148.88;100.00;74806.44;5002804;28;20026;-90
2022/08/20 08:25:41;;;;;;;16.55;13.98;;;;;;;-148.88;100.00;74820.63;4998420;28;20211;-91
2022/08/20 08:28:06;;;;;;;21.15;15.73;;;;;;;-148.88;100.00;74830.78;4999713;28;20029;-88
2022/08/20 08:30:32;;;;;;;21.30;15.20;;;;;;;-148.88;100.00;74842.97;4996065;28;20492;-88
2022/08/20 08:35:44;;;;;;;23.65;18.35;;;;;;;-148.88;100.00;74859.22;4995533;28;20061;-88
2022/08/20 08:38:10;;;;;;;24.63;17.63;;;;;;;-148.88;100.00;74867.34;4995459;28;20056;-87
2022/08/20 08:40:36;;;;;;;21.52;16.10;;;;;;;-148.88;100.00;74881.56;4994447;28;20053;-90
2022/08/20 08:43:03;;;;;;;22.98;16.00;;;;;;;-148.88;100.00;74879.53;4996134;28;20389;-89
2022/08/20 08:45:44;;;;;;;19.17;16.27;;;;;;;-148.88;100.00;74869.38;4995014;28;20029;-89
2022/08/20 08:48:13;;;;;;;25.20;16.90;;;;;;;-148.88;100.00;74875.47;4994295;28;20037;-88
2022/08/20 08:50:41;;;;;;;20.38;15.60;;;;;;;-148.88;100.00;74899.84;4996445;28;20045;-91
2022/08/20 08:53:08;;;;;;;24.20;17.13;;;;;;;-148.88;100.00;74893.75;4994156;28;20023;-90
2022/08/20 08:55:33;;;;;;;22.85;17.65;;;;;;;-148.88;100.00;74879.53;4995256;28;20133;-91
2022/08/20 08:58:01;;;;;;;22.55;17.70;;;;;;;-148.88;100.00;74893.75;4997751;28;20124;-90
2022/08/20 09:00:27;;;;;;;25.80;19.35;;;;;;;-148.88;100.00;74871.41;5000764;28;20028;-91
2022/08/20 09:02:58;;;;;;;23.60;17.95;;;;;;;-148.88;100.00;74873.44;4997733;28;20026;-89
2022/08/20 09:05:30;;;;;;;23.05;18.20;;;;;;;-148.88;100.00;74881.56;4996782;28;20054;-90
2022/08/20 09:07:57;;;;;;;24.50;18.75;;;;;;;-148.88;100.00;74863.28;4993899;28;20030;-88
2022/08/20 09:10:23;;;;;;;22.05;17.92;;;;;;;-148.88;100.00;74859.22;4995751;28;20033;-90
2022/08/20 09:12:48;;;;;;;22.80;17.92;;;;;;;-148.88;100.00;74826.72;4993894;28;20031;-90
2022/08/20 09:15:14;;;;;;;25.45;19.00;;;;;;;-148.88;100.00;74794.25;4997589;28;20026;-92
2022/08/20 09:17:39;;;;;;;23.05;17.92;;;;;;;-148.88;100.00;74794.25;5007186;28;20066;-90
2022/08/20 09:20:06;;;;;;;23.60;18.48;;;;;;;-148.88;100.00;74788.16;4999398;28;20022;-91
2022/08/20 09:22:32;;;;;;;19.98;16.88;;;;;;;-148.88;100.00;74784.09;5001098;28;20072;-90
2022/08/20 09:24:58;;;;;;;23.83;18.05;;;;;;;-148.88;100.00;74778.00;4993187;28;20113;-89
2022/08/20 09:27:23;;;;;;;23.05;17.77;;;;;;;-148.88;100.00;74767.84;4993854;28;20234;-90
2022/08/20 09:29:49;;;;;;;23.42;18.48;;;;;;;-148.88;100.00;74790.19;4998699;28;20038;-87
2022/08/20 09:32:19;;;;;;;26.25;18.55;;;;;;;-148.88;100.00;74802.38;4994954;28;20117;-86
2022/08/20 09:34:47;;;;;;;24.15;18.73;;;;;;;-148.88;100.00;74832.81;4994571;28;20030;-85
2022/08/20 09:37:13;;;;;;;23.23;18.52;;;;;;;-148.88;100.00;74847.03;4992867;28;20373;-86
2022/08/20 09:39:40;;;;;;;21.40;16.67;;;;;;;-148.88;100.00;74863.28;4995398;28;20030;-85
2022/08/20 09:42:19;;;;;;;23.02;18.30;;;;;;;-148.88;100.00;74840.94;4993230;28;20026;-85
2022/08/20 09:44:44;;;;;;;19.52;15.52;;;;;;;-148.88;100.00;74804.41;4995578;28;20121;-85
2022/08/20 09:47:10;;;;;;;19.63;15.50;;;;;;;-148.88;100.00;74806.44;4993059;28;20034;-85
2022/08/20 09:49:38;;;;;;;17.95;14.50;;;;;;;-148.88;100.00;74790.19;4994095;28;20049;-85
2022/08/20 09:52:07;;;;;;;17.42;15.05;;;;;;;-148.88;100.00;74796.28;4994314;28;20026;-85
2022/08/20 09:54:34;;;;;;;19.40;15.07;;;;;;;-148.88;100.00;74792.22;4994255;28;20035;-85
2022/08/20 09:57:03;;;;;;;16.88;13.90;;;;;;;-148.88;100.00;74761.75;4994375;28;20022;-85
2022/08/20 09:59:29;;;;;;;17.00;13.68;;;;;;;-148.88;99.89;74721.13;4992834;28;20026;-85
2022/08/20 10:01:55;;;;;;;15.30;13.50;;;;;;;-148.88;98.63;74688.66;4994127;28;20025;-85
2022/08/20 10:04:20;;;;;;;16.50;13.57;;;;;;;-148.88;96.45;74672.41;4992634;28;20026;-86
2022/08/20 10:06:46;;;;;;;15.45;13.38;;;;;;;-148.88;93.30;74639.91;4993429;28;20042;-85
2022/08/20 10:09:11;;;;;;;15.32;13.55;;;;;;;-148.88;94.50;74595.25;4993821;28;20191;-86
2022/08/20 10:11:37;;;;;;;16.17;13.88;;;;;;;-148.88;94.82;74560.72;4993724;28;20034;-85
2022/08/20 10:14:02;;;;;;;12.50;10.85;;;;;;;-148.88;89.80;74585.09;4996952;28;20030;-84
2022/08/20 10:16:27;;;;;;;11.13;9.48;;;;;;;-148.88;90.36;74650.06;4997620;28;20032;-85
2022/08/20 10:18:53;;;;;;;11.98;9.25;;;;;;;-148.88;89.85;74668.34;4996445;28;20022;-85
2022/08/20 10:21:19;;;;;;;12.82;11.25;;;;;;;-148.88;91.09;74668.34;4997898;28;20022;-85
2022/08/20 10:23:44;;;;;;;14.48;10.70;;;;;;;-148.88;88.16;74631.78;4997306;28;20161;-85
2022/08/20 10:26:13;;;;;;;12.18;10.88;;;;;;;-148.88;88.82;74566.81;4997220;28;20062;-85
2022/08/20 10:28:39;;;;;;;10.85;9.43;;;;;;;-148.88;87.43;74514.00;4996495;28;20042;-85
2022/08/20 10:31:05;;;;;;;11.55;10.05;;;;;;;-148.88;86.75;74581.03;4998209;28;20030;-85
2022/08/20 10:33:31;;;;;;;9.85;8.68;;;;;;;-148.88;88.43;74579.00;4996597;28;20477;-85
2022/08/20 10:35:56;;;;;;;10.48;8.85;;;;;;;-148.88;87.90;74609.44;4996494;28;20068;-85
2022/08/20 10:38:22;;;;;;;13.50;9.32;;;;;;;-148.88;89.33;74652.09;4998259;28;20023;-84
2022/08/20 10:40:47;;;;;;;11.38;7.53;;;;;;;-148.88;86.56;74725.19;4999146;28;20525;-85
2022/08/20 10:43:13;;;;;;;8.65;7.38;;;;;;;-148.88;87.53;74723.16;4997302;28;20061;-87
2022/08/20 10:45:39;;;;;;;10.50;7.00;;;;;;;-148.88;86.66;74737.38;4995915;28;20101;-88
2022/08/20 10:48:06;;;;;;;11.27;8.25;;;;;;;-148.88;88.04;74731.28;4996220;28;20076;-87
2022/08/20 10:50:31;;;;;;;10.02;8.90;;;;;;;-148.88;89.21;74725.19;4996286;28;20035;-84
2022/08/20 10:52:57;;;;;;;10.85;8.88;;;;;;;-148.88;87.08;74700.84;4997073;28;20374;-84
2022/08/20 10:55:22;;;;;;;11.05;9.55;;;;;;;-148.88;88.77;74682.56;4995554;28;20030;-84
2022/08/20 10:57:47;;;;;;;11.48;9.55;;;;;;;-148.88;86.91;74672.41;4995922;28;20096;-85
2022/08/20 11:00:16;;;;;;;10.43;7.97;;;;;;;-148.88;85.63;74619.59;4995741;28;20025;-85
2022/08/20 11:02:42;;;;;;;9.60;8.38;;;;;;;-148.88;83.55;74554.63;4996294;28;20026;-83
2022/08/20 11:05:07;;;;;;;11.98;7.93;;;;;;;-148.88;81.25;74583.06;4996266;28;20081;-85
2022/08/20 11:07:41;;;;;;;8.95;7.72;;;;;;;-148.88;83.58;74601.31;4995963;28;20121;-87